createdAt,value
2023-01-19T00:02:01.171Z,34.3
2023-01-19T00:07:01.944Z,31.7
2023-01-19T00:12:01.601Z,30.6
2023-01-19T00:17:02.168Z,31.1
2023-01-19T00:22:01.170Z,30.7
2023-01-19T00:27:01.905Z,31.0
2023-01-19T00:32:01.175Z,33.6
2023-01-19T00:37:01.238Z,29.9
2023-01-19T00:42:01.643Z,29.8
2023-01-19T00:47:01.192Z,29.2
2023-01-19T00:52:01.594Z,28.0
2023-01-19T00:57:01.231Z,27.5
2023-01-19T01:02:01.689Z,30.6
2023-01-19T01:07:02.163Z,29.8
2023-01-19T01:12:01.173Z,29.0
2023-01-19T01:17:01.224Z,29.4
2023-01-19T01:22:01.160Z,29.0
2023-01-19T01:27:01.260Z,28.5
2023-01-19T01:32:01.161Z,29.0
2023-01-19T01:37:01.937Z,29.8
2023-01-19T01:42:01.166Z,28.8
2023-01-19T01:47:01.190Z,28.0
2023-01-19T01:52:01.776Z,28.0
2023-01-19T01:57:01.234Z,25.9
2023-01-19T02:02:01.784Z,24.8
2023-01-19T02:07:01.205Z,24.7
2023-01-19T02:13:03.914Z,24.4
2023-01-19T02:18:02.190Z,23.1
2023-01-19T02:23:06.757Z,23.4
2023-01-19T02:28:01.248Z,22.6
2023-01-19T02:33:02.297Z,21.5
2023-01-19T02:38:02.843Z,20.3
2023-01-19T02:43:02.412Z,20.8
2023-01-19T02:48:01.163Z,21.0
2023-01-19T02:53:02.179Z,20.9
2023-01-19T02:58:09.397Z,21.5
2023-01-19T03:03:02.310Z,23.6
2023-01-19T03:08:06.271Z,23.3
2023-01-19T03:13:02.057Z,21.0
2023-01-19T03:18:01.218Z,20.2
2023-01-19T03:23:02.208Z,17.7
2023-01-19T03:28:01.302Z,17.1
2023-01-19T03:33:02.265Z,17.1
2023-01-19T03:38:04.352Z,18.0
2023-01-19T03:43:02.313Z,18.6
2023-01-19T03:48:01.226Z,19.8
2023-01-19T03:53:01.934Z,18.7
2023-01-19T03:58:01.202Z,17.7
2023-01-19T04:03:02.355Z,18.4
2023-01-19T04:08:01.257Z,17.4
2023-01-19T04:13:02.192Z,17.5
2023-01-19T04:18:01.640Z,16.6
2023-01-19T04:23:02.490Z,15.5
2023-01-19T04:28:01.684Z,15.2
2023-01-19T04:33:02.151Z,14.7
2023-01-19T04:38:01.363Z,13.7
2023-01-19T04:43:02.169Z,13.7
2023-01-19T04:48:01.223Z,14.3
2023-01-19T04:53:02.204Z,12.7
2023-01-19T04:58:01.207Z,13.6
2023-01-19T05:03:02.295Z,13.5
2023-01-19T05:08:01.244Z,12.8
2023-01-19T05:13:02.095Z,11.8
2023-01-19T05:18:01.290Z,11.5
2023-01-19T05:23:02.197Z,10.2
2023-01-19T05:28:01.654Z,10.2
2023-01-19T05:33:02.059Z,10.4
2023-01-19T05:38:01.289Z,10.8
2023-01-19T05:48:01.288Z,11.7
2023-01-19T05:53:02.118Z,11.5
2023-01-19T05:58:01.208Z,12.6
2023-01-19T06:03:04.804Z,12.6
2023-01-19T06:08:01.165Z,14.0
2023-01-19T06:13:02.141Z,13.9
2023-01-19T06:18:01.226Z,14.3
2023-01-19T06:23:02.045Z,12.2
2023-01-19T06:28:01.175Z,12.2
2023-01-19T06:34:01.266Z,11.0
2023-01-19T06:39:01.226Z,11.5
2023-01-19T06:44:01.198Z,10.8
2023-01-19T06:49:02.281Z,12.3
2023-01-19T06:59:01.281Z,13.8
2023-01-19T07:04:01.165Z,14.4
2023-01-19T07:09:01.226Z,15.4
2023-01-19T07:14:01.191Z,14.6
2023-01-19T07:19:01.305Z,13.3
2023-01-19T07:24:01.303Z,12.5
2023-01-19T07:29:01.631Z,11.9
2023-01-19T07:34:01.166Z,13.2
2023-01-19T07:39:01.357Z,16.0
2023-01-19T07:44:01.214Z,23.6
2023-01-19T07:49:01.250Z,30.9
2023-01-19T07:54:01.772Z,36.1
2023-01-19T07:59:01.270Z,40.0
2023-01-19T08:04:01.178Z,40.6
2023-01-19T08:09:01.763Z,35.8
2023-01-19T08:14:01.246Z,29.6
2023-01-19T08:19:02.139Z,25.0
2023-01-19T08:24:01.305Z,21.8
2023-01-19T08:29:01.174Z,20.3
2023-01-19T08:34:01.211Z,21.4
2023-01-19T08:39:01.261Z,25.0
2023-01-19T08:44:01.187Z,26.6
2023-01-19T08:50:02.396Z,29.0
2023-01-19T08:55:01.254Z,33.2
2023-01-19T09:00:02.911Z,34.5
2023-01-19T09:05:02.084Z,31.4
2023-01-19T09:10:01.170Z,34.6
2023-01-19T09:15:02.075Z,34.8
2023-01-19T09:20:01.181Z,32.6
2023-01-19T09:25:01.171Z,30.4
2023-01-19T09:30:02.491Z,30.8
2023-01-19T09:35:01.450Z,27.1
2023-01-19T09:40:01.303Z,24.3
2023-01-19T09:45:04.966Z,22.7
2023-01-19T09:50:09.407Z,21.9
2023-01-19T09:55:01.172Z,20.0
2023-01-19T10:00:02.351Z,18.8
2023-01-19T10:05:03.266Z,18.3
2023-01-19T10:10:01.242Z,18.3
2023-01-19T10:15:01.183Z,18.4
2023-01-19T10:20:01.221Z,19.4
2023-01-19T10:25:03.210Z,18.4
2023-01-19T10:30:06.493Z,17.4
2023-01-19T10:35:01.319Z,16.3
2023-01-19T10:40:01.279Z,15.9
2023-01-19T10:45:02.643Z,15.3
2023-01-19T10:56:01.439Z,15.4
2023-01-19T11:01:01.573Z,15.4
2023-01-19T11:06:01.181Z,14.2
2023-01-19T11:11:01.196Z,13.6
2023-01-19T11:21:01.365Z,13.3
2023-01-19T11:26:01.250Z,13.1
2023-01-19T11:31:01.514Z,13.8
2023-01-19T11:36:14.221Z,13.9
2023-01-19T11:41:01.369Z,13.6
2023-01-19T11:46:01.395Z,13.8
2023-01-19T11:51:01.197Z,13.4
2023-01-19T11:56:01.260Z,13.7
2023-01-19T12:11:01.185Z,13.8
2023-01-19T12:16:01.337Z,14.5
2023-01-19T12:21:04.530Z,14.4
2023-01-19T12:26:01.176Z,15.5
2023-01-19T12:31:01.447Z,16.0
2023-01-19T12:36:01.522Z,16.5
2023-01-19T12:41:01.326Z,16.4
2023-01-19T12:46:01.215Z,16.2
2023-01-19T12:51:01.190Z,15.9
2023-01-19T12:56:01.557Z,16.3
2023-01-19T13:01:01.390Z,16.4
2023-01-19T13:06:03.150Z,17.6
2023-01-19T13:11:01.175Z,17.9
2023-01-19T13:16:01.492Z,17.7
2023-01-19T13:21:01.175Z,17.9
2023-01-19T13:26:01.177Z,18.9
2023-01-19T13:31:01.367Z,18.5
2023-01-19T13:36:01.407Z,18.6
2023-01-19T13:41:01.171Z,19.1
2023-01-19T13:46:01.294Z,19.4
2023-01-19T13:51:01.171Z,18.8
2023-01-19T13:56:01.368Z,18.4
2023-01-19T14:01:01.359Z,17.5
2023-01-19T14:06:02.180Z,17.5
2023-01-19T14:11:01.244Z,17.5
2023-01-19T14:16:01.383Z,18.0
2023-01-19T14:21:01.228Z,19.0
2023-01-19T14:26:01.178Z,20.3
2023-01-19T14:31:01.659Z,21.1
2023-01-19T14:36:01.270Z,21.2
2023-01-19T14:42:01.300Z,20.5
2023-01-19T14:47:01.172Z,20.4
2023-01-19T14:52:01.292Z,20.7
2023-01-19T14:57:01.309Z,22.9
2023-01-19T15:02:01.388Z,24.3
2023-01-19T15:07:01.262Z,26.6
2023-01-19T15:12:01.694Z,27.8
2023-01-19T15:17:01.174Z,28.0
2023-01-19T15:22:01.177Z,27.1
2023-01-19T15:27:01.167Z,26.7
2023-01-19T15:32:01.373Z,22.7
2023-01-19T15:37:01.164Z,20.3
2023-01-19T15:42:01.180Z,19.2
2023-01-19T15:47:01.588Z,17.5
2023-01-19T15:52:01.364Z,15.3
2023-01-19T15:57:01.239Z,16.5
2023-01-19T16:02:01.560Z,17.6
2023-01-19T16:07:01.247Z,17.0
2023-01-19T16:12:06.696Z,17.4
2023-01-19T16:17:01.548Z,18.8
2023-01-19T16:22:01.579Z,20.4
2023-01-19T16:27:01.167Z,20.0
2023-01-19T16:32:01.502Z,21.4
2023-01-19T16:37:01.196Z,20.4
2023-01-19T16:42:01.174Z,20.4
2023-01-19T16:47:01.270Z,20.8
2023-01-19T16:52:01.270Z,21.6
2023-01-19T16:57:01.281Z,22.4
2023-01-19T17:02:01.606Z,23.0
2023-01-19T17:07:01.273Z,22.8
2023-01-19T17:12:01.261Z,21.7
2023-01-19T17:17:01.465Z,20.5
2023-01-19T17:22:01.178Z,18.8
2023-01-19T17:27:01.654Z,21.8
2023-01-19T17:32:02.004Z,22.6
2023-01-19T17:37:01.199Z,22.5
2023-01-19T17:42:01.186Z,23.3
2023-01-19T17:47:01.167Z,26.1
2023-01-19T17:52:01.279Z,24.8
2023-01-19T17:57:01.245Z,25.0
2023-01-19T18:02:01.357Z,27.0
2023-01-19T18:07:01.235Z,27.8
2023-01-19T18:17:01.252Z,27.4
2023-01-19T18:22:01.507Z,28.1
2023-01-19T18:27:01.187Z,27.7
2023-01-19T18:32:01.236Z,27.2
2023-01-19T18:37:01.296Z,27.2
2023-01-19T18:42:01.209Z,27.5
2023-01-19T18:47:01.172Z,27.2
2023-01-19T18:52:01.256Z,26.8
2023-01-19T18:57:01.252Z,26.5
2023-01-19T19:02:01.359Z,28.3
2023-01-19T19:07:01.177Z,29.4
2023-01-19T19:12:01.245Z,31.5
2023-01-19T19:22:01.311Z,32.7
2023-01-19T19:27:01.193Z,30.9
2023-01-19T19:32:01.197Z,30.1
2023-01-19T19:37:01.688Z,28.2
2023-01-19T19:42:01.275Z,28.8
2023-01-19T19:47:01.233Z,29.6
2023-01-19T19:52:01.182Z,30.3
2023-01-19T19:57:01.167Z,31.6
2023-01-19T20:02:01.398Z,30.6
2023-01-19T20:07:01.266Z,32.7
2023-01-19T20:12:01.226Z,32.7
2023-01-19T20:17:01.173Z,33.0
2023-01-19T20:22:01.458Z,32.2
2023-01-19T20:27:01.273Z,34.6
2023-01-19T20:32:01.184Z,34.0
2023-01-19T20:38:01.969Z,33.8
2023-01-19T20:43:01.231Z,30.7
2023-01-19T20:48:01.242Z,30.6
2023-01-19T20:53:01.221Z,31.3
2023-01-19T20:58:01.347Z,34.3
2023-01-19T21:03:01.175Z,35.3
2023-01-19T21:08:01.188Z,38.3
2023-01-19T21:13:01.182Z,39.8
2023-01-19T21:18:01.250Z,39.3
2023-01-19T21:23:02.390Z,35.8
2023-01-19T21:28:01.167Z,34.2
2023-01-19T21:33:01.190Z,33.6
2023-01-19T21:38:01.361Z,31.5
2023-01-19T21:43:01.898Z,30.0
2023-01-19T21:48:01.172Z,29.8
2023-01-19T21:54:01.321Z,29.0
2023-01-19T21:59:01.164Z,27.5
2023-01-19T22:04:01.362Z,26.8
2023-01-19T22:09:01.226Z,26.7
2023-01-19T22:14:01.258Z,26.7
2023-01-19T22:19:01.304Z,26.2
2023-01-19T22:24:01.241Z,27.1
2023-01-19T22:29:01.350Z,27.7
2023-01-19T22:34:01.259Z,27.4
2023-01-19T22:39:01.170Z,27.8
2023-01-19T22:44:01.176Z,29.0
2023-01-19T22:49:01.185Z,29.2
2023-01-19T22:54:01.488Z,28.4
2023-01-19T22:59:01.167Z,30.5
2023-01-19T23:04:01.179Z,30.9
2023-01-19T23:09:01.196Z,29.5
2023-01-19T23:14:01.266Z,30.2
2023-01-19T23:19:01.379Z,29.5
2023-01-19T23:24:01.296Z,28.6
2023-01-19T23:29:01.254Z,27.7
2023-01-19T23:34:01.268Z,28.2
2023-01-19T23:39:03.603Z,27.7
2023-01-19T23:44:01.303Z,28.5
2023-01-19T23:49:01.271Z,29.4
2023-01-19T23:54:01.275Z,30.2
2023-01-19T23:59:01.230Z,30.8
